Time;durP1;ratioP1;P1;durP2;ratioP2;P2;SDS_P1;SDS_P2;PMS_P1;PMS_P2;Temp;Humidity;BMP_temperature;BMP_pressure;BME280_temperature;BME280_humidity;BME280_pressure;Samples;Min_cycle;Max_cycle;Signal;HPM_P1;HPM_P2
2021/11/16 00:01:10;;;;;;;108.70;50.80;;;;;;;4.94;83.59;101349.58;2047643;86;20996;-76
2021/11/16 00:04:12;;;;;;;102.55;49.08;;;;;;;4.91;83.63;101347.16;2043829;86;21040;-75
2021/11/16 00:07:13;;;;;;;104.75;51.10;;;;;;;4.88;83.67;101339.47;2045231;86;21007;-76
2021/11/16 00:10:15;;;;;;;98.03;48.13;;;;;;;4.87;83.69;101335.16;2048986;86;20998;-77
2021/11/16 00:13:16;;;;;;;105.22;51.00;;;;;;;4.87;83.67;101335.16;2046725;86;21014;-77
2021/11/16 00:16:18;;;;;;;106.72;50.60;;;;;;;4.88;83.71;101335.52;2045369;86;21508;-76
2021/11/16 00:19:20;;;;;;;106.00;49.45;;;;;;;4.88;83.70;101328.95;2048112;86;21573;-77
2021/11/16 00:22:23;;;;;;;110.50;52.27;;;;;;;4.88;83.68;101327.63;2048012;86;21465;-77
2021/11/16 00:25:33;;;;;;;104.05;51.53;;;;;;;4.88;83.69;101325.00;2047784;86;20991;-77
2021/11/16 00:28:28;;;;;;;112.00;51.45;;;;;;;4.85;83.67;101328.31;2047092;86;21442;-76
2021/11/16 00:31:31;;;;;;;108.57;51.00;;;;;;;4.84;83.73;101332.73;2044506;86;21034;-77
2021/11/16 00:34:33;;;;;;;120.47;53.17;;;;;;;4.86;83.78;101336.09;2042512;86;21026;-75
2021/11/16 00:37:35;;;;;;;111.28;52.83;;;;;;;4.89;83.76;101341.14;2046226;86;21008;-77
2021/11/16 00:40:39;;;;;;;106.85;49.20;;;;;;;4.87;83.73;101343.05;2045576;86;20989;-75
2021/11/16 00:43:40;;;;;;;111.25;53.38;;;;;;;4.85;83.70;101344.09;2045879;86;21765;-75
2021/11/16 00:46:42;;;;;;;111.40;52.17;;;;;;;4.81;83.74;101343.42;2043126;85;21628;-76
2021/11/16 00:49:43;;;;;;;112.57;51.48;;;;;;;4.78;83.78;101344.94;2043184;86;21085;-75
2021/11/16 00:52:45;;;;;;;112.45;51.90;;;;;;;4.76;83.83;101340.27;2045195;86;21468;-76
2021/11/16 00:55:47;;;;;;;110.22;50.28;;;;;;;4.73;83.86;101337.84;2045400;86;21056;-78
2021/11/16 00:58:48;;;;;;;121.37;54.00;;;;;;;4.72;84.01;101329.09;2043942;86;21034;-76
2021/11/16 01:01:59;;;;;;;112.88;50.28;;;;;;;4.73;83.99;101336.53;2041038;86;20998;-77
2021/11/16 01:05:01;;;;;;;116.15;53.42;;;;;;;4.73;83.98;101335.22;2041324;86;21478;-76
2021/11/16 01:08:03;;;;;;;112.60;50.23;;;;;;;4.73;84.03;101337.84;2049563;86;21077;-75
2021/11/16 01:11:04;;;;;;;106.97;50.43;;;;;;;4.75;84.02;101339.05;2043177;86;21497;-74
2021/11/16 01:14:06;;;;;;;106.35;49.33;;;;;;;4.72;83.98;101336.14;2041270;86;21044;-76
2021/11/16 01:17:08;;;;;;;107.67;49.80;;;;;;;4.69;84.00;101336.34;2044302;86;21039;-76
2021/11/16 01:20:12;;;;;;;109.50;49.58;;;;;;;4.68;83.98;101339.92;2043766;86;21038;-75
2021/11/16 01:23:15;;;;;;;101.97;48.25;;;;;;;4.64;84.05;101333.16;2042652;86;21006;-76
2021/11/16 01:26:17;;;;;;;103.80;47.20;;;;;;;4.61;84.17;101328.10;2048443;86;21479;-76
2021/11/16 01:29:20;;;;;;;109.72;50.12;;;;;;;4.57;84.17;101324.83;2048190;86;21816;-77
2021/11/16 01:32:40;;;;;;;114.03;50.63;;;;;;;4.53;84.18;101326.44;2044558;85;21508;-76
2021/11/16 01:35:42;;;;;;;107.32;48.30;;;;;;;4.50;84.27;101318.27;2045604;86;21061;-75
2021/11/16 01:38:44;;;;;;;108.90;49.50;;;;;;;4.52;84.39;101318.19;2045216;86;21043;-77
2021/11/16 01:41:45;;;;;;;109.92;49.55;;;;;;;4.52;84.37;101308.51;2044266;86;21009;-77
2021/11/16 01:44:48;;;;;;;108.22;49.30;;;;;;;4.51;84.40;101306.83;2044322;86;21010;-77
2021/11/16 01:47:50;;;;;;;105.97;48.92;;;;;;;4.52;84.44;101307.67;2046018;86;20971;-78
2021/11/16 01:50:52;;;;;;;113.05;50.00;;;;;;;4.55;84.42;101312.73;2052115;86;21559;-75
2021/11/16 01:54:02;;;;;;;111.15;50.67;;;;;;;4.55;84.47;101311.41;2043370;86;21030;-77
2021/11/16 01:57:05;;;;;;;116.85;50.80;;;;;;;4.55;84.49;101310.10;2050166;86;21002;-76
2021/11/16 02:00:12;;;;;;;114.90;50.20;;;;;;;4.57;84.53;101307.75;2042755;86;21525;-77
2021/11/16 02:03:14;;;;;;;104.80;49.48;;;;;;;4.56;84.50;101303.89;2044908;86;21074;-76
2021/11/16 02:06:27;;;;;;;106.75;47.83;;;;;;;4.55;84.49;101306.99;2044223;86;21070;-78
2021/11/16 02:09:29;;;;;;;115.75;47.55;;;;;;;4.51;84.50;101312.09;2046325;86;21041;-76
2021/11/16 02:12:30;;;;;;;115.10;50.08;;;;;;;4.48;84.58;101317.07;2043369;86;21011;-76
2021/11/16 02:15:37;;;;;;;104.17;46.63;;;;;;;4.45;84.67;101313.80;2043139;85;21019;-76
2021/11/16 02:18:37;;;;;;;104.95;47.83;;;;;;;4.43;84.70;101319.14;2010689;86;21007;-77
2021/11/16 02:21:39;;;;;;;115.08;49.05;;;;;;;4.43;84.74;101315.67;2008824;86;21090;-76
2021/11/16 02:24:40;;;;;;;107.27;46.55;;;;;;;4.43;84.79;101312.58;2012506;86;21003;-76
2021/11/16 02:27:42;;;;;;;113.15;47.00;;;;;;;4.42;84.83;101305.64;2011545;86;21004;-77
2021/11/16 02:30:46;;;;;;;108.07;47.95;;;;;;;4.42;84.84;101304.77;2009855;86;21497;-77
2021/11/16 02:33:48;;;;;;;103.85;46.25;;;;;;;4.44;84.88;101299.80;2014933;86;21070;-77
2021/11/16 02:36:50;;;;;;;94.03;41.18;;;;;;;4.44;84.84;101293.22;2017869;86;21030;-77
2021/11/16 02:39:51;;;;;;;109.78;45.28;;;;;;;4.42;84.80;101300.39;2017409;86;20999;-77
2021/11/16 02:42:53;;;;;;;107.05;46.23;;;;;;;4.40;84.93;101296.16;2016636;86;20994;-78
2021/11/16 02:45:55;;;;;;;98.70;45.25;;;;;;;4.40;85.04;101298.80;2013447;86;20965;-75
2021/11/16 02:48:58;;;;;;;110.70;47.38;;;;;;;4.38;85.06;101290.99;2021761;86;21454;-76
2021/11/16 02:51:59;;;;;;;119.65;51.02;;;;;;;4.39;85.07;101291.83;2025377;86;21012;-77
2021/11/16 02:55:01;;;;;;;113.10;48.68;;;;;;;4.41;85.08;101290.80;2017717;86;21091;-77
2021/11/16 02:58:04;;;;;;;123.50;52.43;;;;;;;4.41;85.10;101282.07;2020478;86;21015;-76
2021/11/16 03:01:11;;;;;;;123.10;51.98;;;;;;;4.40;85.15;101275.98;2016679;86;21061;-77
2021/11/16 03:04:22;;;;;;;117.47;50.90;;;;;;;4.42;85.17;101276.73;2013512;86;21056;-76
2021/11/16 03:07:33;;;;;;;120.17;51.77;;;;;;;4.43;85.19;101275.78;2019158;86;20967;-75
2021/11/16 03:10:35;;;;;;;129.97;53.73;;;;;;;4.44;85.18;101273.52;2019973;86;21514;-75
2021/11/16 03:13:38;;;;;;;146.10;58.92;;;;;;;4.46;85.21;101274.74;2023899;86;21028;-76
2021/11/16 03:16:40;;;;;;;145.00;58.63;;;;;;;4.45;85.29;101280.95;2023869;86;20996;-76
2021/11/16 03:19:42;;;;;;;137.50;58.52;;;;;;;4.45;85.28;101276.53;2011983;86;21694;-76
2021/11/16 03:22:53;;;;;;;147.57;58.33;;;;;;;4.46;85.34;101276.89;2012518;86;21031;-75
2021/11/16 03:26:00;;;;;;;143.82;60.45;;;;;;;4.46;85.32;101265.06;2015171;86;21489;-76
2021/11/16 03:29:01;;;;;;;145.87;58.00;;;;;;;4.51;85.34;101277.08;2016765;86;20999;-77
2021/11/16 03:32:09;;;;;;;146.43;58.28;;;;;;;4.52;85.34;101270.87;2008540;86;21664;-77
2021/11/16 03:35:09;;;;;;;147.40;61.00;;;;;;;4.52;85.32;101278.28;2015067;86;21007;-76
2021/11/16 03:38:13;;;;;;;144.32;59.93;;;;;;;4.52;85.33;101274.81;2009242;86;21034;-78
2021/11/16 03:41:16;;;;;;;165.37;62.23;;;;;;;4.51;85.36;101277.92;2023164;86;20966;-76
2021/11/16 03:44:19;;;;;;;153.12;62.45;;;;;;;4.51;85.38;101278.40;2014402;86;21523;-76
2021/11/16 03:47:21;;;;;;;141.22;56.35;;;;;;;4.53;85.41;101278.64;2007550;86;21082;-77
2021/11/16 03:50:27;;;;;;;146.77;59.80;;;;;;;4.56;85.36;101281.09;2013028;86;21086;-76
2021/11/16 03:53:28;;;;;;;152.38;59.85;;;;;;;4.57;85.39;101277.52;2008074;86;21034;-77
2021/11/16 03:56:30;;;;;;;155.07;58.60;;;;;;;4.58;85.33;101279.19;2016681;86;21499;-78
2021/11/16 03:59:31;;;;;;;154.03;61.10;;;;;;;4.61;85.39;101272.41;2013548;86;21018;-77
2021/11/16 04:02:33;;;;;;;150.07;60.03;;;;;;;4.64;85.41;101266.12;2017625;86;20989;-77
2021/11/16 04:05:36;;;;;;;144.40;58.02;;;;;;;4.69;85.43;101259.62;2020197;86;21006;-76
2021/11/16 04:08:38;;;;;;;144.35;59.10;;;;;;;4.76;85.46;101261.39;2020135;86;20995;-75
2021/11/16 04:11:41;;;;;;;143.82;62.15;;;;;;;4.79;85.33;101258.55;2021910;86;21028;-76
2021/11/16 04:14:42;;;;;;;153.55;59.90;;;;;;;4.80;85.29;101256.28;2028547;86;21705;-77
2021/11/16 04:17:45;;;;;;;161.82;64.27;;;;;;;4.81;85.29;101256.64;2020896;86;21635;-77
2021/11/16 04:20:49;;;;;;;153.70;60.17;;;;;;;4.82;85.27;101253.09;2020002;86;21076;-77
2021/11/16 04:23:51;;;;;;;152.05;58.30;;;;;;;4.84;85.24;101247.27;2023249;86;20985;-77
2021/11/16 04:26:52;;;;;;;142.37;56.10;;;;;;;4.84;85.21;101243.32;2024674;86;20973;-77
2021/11/16 04:29:54;;;;;;;137.90;57.23;;;;;;;4.82;85.13;101240.42;2028448;86;21046;-77
2021/11/16 04:32:56;;;;;;;137.22;56.02;;;;;;;4.81;85.16;101238.23;2023623;86;21044;-78
2021/11/16 04:35:58;;;;;;;136.03;56.23;;;;;;;4.80;85.14;101236.56;2020002;86;21465;-77
2021/11/16 04:39:02;;;;;;;129.15;52.25;;;;;;;4.80;85.16;101240.51;2028090;86;21043;-78
2021/11/16 04:42:04;;;;;;;135.85;53.33;;;;;;;4.80;85.15;101240.51;2022430;86;21048;-77
2021/11/16 04:45:11;;;;;;;132.35;52.08;;;;;;;4.81;85.24;101240.86;2019609;86;21076;-76
2021/11/16 04:48:46;;;;;;;133.55;54.63;;;;;;;4.78;85.09;101244.18;2020267;86;21552;-77
2021/11/16 04:51:50;;;;;;;121.50;51.25;;;;;;;4.75;85.09;101243.91;2015187;86;21014;-75
2021/11/16 05:04:56;;;;;;;;;;;;;;;4.72;85.31;101247.58;2018240;86;21052;-76
2021/11/16 05:08:01;;;;;;;120.50;47.67;;;;;;;4.77;85.32;101252.55;2021190;86;20145;-76
2021/11/16 05:11:03;;;;;;;118.02;46.42;;;;;;;4.75;85.26;101243.07;2023324;86;21086;-77
2021/11/16 05:14:05;;;;;;;108.45;44.90;;;;;;;4.73;85.24;101245.82;2028718;86;21061;-76
2021/11/16 05:17:07;;;;;;;116.17;47.80;;;;;;;4.74;85.25;101246.18;2034798;86;21155;-75
2021/11/16 05:20:10;;;;;;;118.25;48.50;;;;;;;4.73;85.33;101244.50;2048083;86;21059;-76
2021/11/16 05:23:12;;;;;;;109.78;43.63;;;;;;;4.79;85.43;101250.66;2046842;86;21022;-76
2021/11/16 05:26:14;;;;;;;102.30;44.13;;;;;;;4.83;85.36;101252.13;2047363;86;21933;-76
2021/11/16 05:29:16;;;;;;;118.35;49.23;;;;;;;4.77;85.19;101248.60;2050663;86;21481;-78
2021/11/16 05:32:17;;;;;;;116.15;45.30;;;;;;;4.75;85.35;101251.80;2048936;86;21054;-77
2021/11/16 05:35:19;;;;;;;106.00;45.05;;;;;;;4.78;85.42;101253.38;2043578;86;21548;-76
2021/11/16 05:38:26;;;;;;;107.10;44.50;;;;;;;4.82;85.45;101256.20;2049145;85;21242;-75
2021/11/16 05:41:27;;;;;;;107.92;45.75;;;;;;;4.81;85.31;101251.38;2046804;85;21620;-75
2021/11/16 05:44:32;;;;;;;113.05;46.28;;;;;;;4.78;85.39;101247.64;2047557;86;20960;-76
2021/11/16 05:47:33;;;;;;;108.42;44.35;;;;;;;4.82;85.46;101255.72;2051920;85;21061;-76
2021/11/16 05:50:36;;;;;;;102.10;43.15;;;;;;;4.79;85.33;101248.03;2051342;86;21001;-76
2021/11/16 05:53:40;;;;;;;105.30;42.10;;;;;;;4.77;85.38;101245.97;2047365;86;21083;-76
2021/11/16 05:56:41;;;;;;;115.85;46.98;;;;;;;4.77;85.48;101236.77;2046191;86;21072;-74
2021/11/16 05:59:43;;;;;;;102.75;42.43;;;;;;;4.79;85.55;101232.26;2047604;86;21026;-75
2021/11/16 06:02:44;;;;;;;91.85;39.92;;;;;;;4.78;85.51;101225.77;2046421;86;21033;-77
2021/11/16 06:05:46;;;;;;;95.00;39.67;;;;;;;4.75;85.52;101227.30;2050114;86;21539;-76
2021/11/16 06:08:50;;;;;;;96.70;40.63;;;;;;;4.74;85.58;101226.94;2049659;86;21014;-75
2021/11/16 06:11:52;;;;;;;100.22;40.10;;;;;;;4.71;85.76;101230.61;2050517;86;21443;-75
2021/11/16 06:14:54;;;;;;;102.27;42.27;;;;;;;4.74;85.82;101236.97;2053127;86;21018;-75
2021/11/16 06:17:55;;;;;;;93.55;40.12;;;;;;;4.77;85.78;101238.08;2045646;86;21077;-75
2021/11/16 06:20:57;;;;;;;95.05;41.23;;;;;;;4.80;85.77;101235.72;2048375;86;21498;-75
2021/11/16 06:23:59;;;;;;;96.82;40.67;;;;;;;4.81;85.77;101242.66;2048257;86;21019;-77
2021/11/16 06:27:01;;;;;;;96.00;39.13;;;;;;;4.84;85.78;101247.27;2046758;86;21002;-75
2021/11/16 06:30:05;;;;;;;98.50;41.05;;;;;;;4.85;85.81;101241.05;2043750;86;21019;-76
2021/11/16 06:33:06;;;;;;;87.62;40.15;;;;;;;4.87;85.81;101247.50;2042608;86;21082;-75
2021/11/16 06:36:08;;;;;;;80.07;34.27;;;;;;;4.88;85.76;101243.95;2043286;86;21293;-76
2021/11/16 06:39:17;;;;;;;97.00;39.05;;;;;;;4.81;85.66;101250.07;2047881;86;21042;-76
2021/11/16 06:42:19;;;;;;;91.08;37.73;;;;;;;4.76;85.77;101241.67;2047533;86;20994;-76
2021/11/16 06:45:21;;;;;;;92.25;38.92;;;;;;;4.76;85.86;101241.67;2045884;86;21110;-77
2021/11/16 06:48:23;;;;;;;85.92;37.38;;;;;;;4.74;86.03;101240.92;2012133;87;20946;-75
2021/11/16 06:51:24;;;;;;;96.95;39.83;;;;;;;4.75;86.27;101251.80;1965144;88;21608;-76
2021/11/16 06:54:27;;;;;;;89.92;38.78;;;;;;;4.76;86.21;101252.19;2015036;88;21074;-76
2021/11/16 06:57:29;;;;;;;94.45;38.98;;;;;;;4.80;86.21;101252.34;2007806;88;21021;-75
2021/11/16 07:00:33;;;;;;;95.38;39.53;;;;;;;4.81;86.28;101251.86;2011754;87;21062;-76
2021/11/16 07:03:34;;;;;;;92.45;39.05;;;;;;;4.81;86.28;101251.86;2045764;86;21595;-75
2021/11/16 07:06:43;;;;;;;94.50;38.58;;;;;;;4.81;86.28;101256.64;2028969;86;21632;-76
2021/11/16 07:09:45;;;;;;;91.80;38.10;;;;;;;4.84;86.30;101260.41;2044622;86;21069;-74
2021/11/16 07:12:47;;;;;;;94.35;39.98;;;;;;;4.85;86.35;101258.14;2045466;86;21581;-75
2021/11/16 07:15:48;;;;;;;95.00;39.70;;;;;;;4.85;86.30;101255.52;2047776;85;21043;-75
2021/11/16 07:18:52;;;;;;;103.02;42.75;;;;;;;4.85;86.35;101255.52;2029625;86;21019;-76
2021/11/16 07:21:54;;;;;;;96.12;41.08;;;;;;;4.80;86.49;101254.97;2015143;86;21541;-75
2021/11/16 07:25:08;;;;;;;93.82;38.98;;;;;;;4.79;86.47;101266.44;2011867;86;21528;-75
2021/11/16 07:28:09;;;;;;;98.40;38.83;;;;;;;4.83;86.53;101256.08;2007162;86;21085;-75
2021/11/16 07:31:17;;;;;;;98.03;39.27;;;;;;;4.87;86.48;101258.02;2010071;86;21501;-75
2021/11/16 07:34:20;;;;;;;88.95;39.00;;;;;;;4.88;86.39;101255.30;2015854;86;21110;-75
2021/11/16 07:37:28;;;;;;;95.38;39.58;;;;;;;4.93;86.46;101249.27;2009849;86;21010;-75
2021/11/16 07:40:33;;;;;;;95.20;40.55;;;;;;;4.94;86.34;101246.16;2017964;86;21307;-75
2021/11/16 07:43:35;;;;;;;104.70;39.95;;;;;;;4.90;86.21;101237.64;2020564;86;20989;-75
2021/11/16 07:46:38;;;;;;;105.40;42.55;;;;;;;4.89;86.30;101240.36;2021232;86;21478;-74
2021/11/16 07:49:49;;;;;;;93.95;37.98;;;;;;;4.94;86.45;101243.53;2022695;86;21605;-75
2021/11/16 07:52:50;;;;;;;85.55;40.43;;;;;;;4.96;86.41;101240.33;2016653;86;21031;-74
2021/11/16 07:55:57;;;;;;;105.90;41.70;;;;;;;5.00;86.44;101235.70;2024101;86;21430;-75
2021/11/16 07:59:02;;;;;;;83.92;36.75;;;;;;;5.00;86.41;101246.22;2008966;86;21371;-75
2021/11/16 08:02:12;;;;;;;95.17;38.20;;;;;;;5.01;86.32;101246.13;2017140;86;21070;-75
2021/11/16 08:05:40;;;;;;;96.57;40.45;;;;;;;5.00;86.33;101253.64;2022611;86;21031;-75
2021/11/16 08:08:51;;;;;;;103.00;38.80;;;;;;;5.02;86.38;101252.23;2016501;86;21043;-75
2021/11/16 08:11:47;;;;;;;106.27;42.05;;;;;;;5.02;86.34;101247.81;1977912;86;21105;-74
2021/11/16 08:15:10;;;;;;;105.45;43.87;;;;;;;5.03;86.32;101242.06;2020031;86;21084;-74
2021/11/16 08:18:14;;;;;;;99.30;41.23;;;;;;;5.04;86.39;101240.66;2016732;86;21120;-74
2021/11/16 08:21:17;;;;;;;102.50;43.15;;;;;;;5.04;86.36;101235.84;2020195;86;21038;-75
2021/11/16 08:24:19;;;;;;;109.95;42.40;;;;;;;5.03;86.42;101237.64;2017745;86;21046;-75
2021/11/16 08:27:34;;;;;;;111.72;43.55;;;;;;;5.05;86.44;101237.08;2017743;86;21077;-74
2021/11/16 08:30:37;;;;;;;98.95;39.45;;;;;;;5.03;86.36;101233.70;2020333;86;21017;-76
2021/11/16 08:33:40;;;;;;;98.30;37.65;;;;;;;4.99;86.22;101227.45;2014224;86;21533;-75
2021/11/16 08:36:50;;;;;;;104.10;41.70;;;;;;;4.88;86.23;101230.31;2018407;86;20994;-74
2021/11/16 08:39:58;;;;;;;104.87;41.28;;;;;;;4.82;86.36;101220.22;2016238;86;21085;-75
2021/11/16 08:43:12;;;;;;;101.95;41.13;;;;;;;4.81;86.48;101213.73;2017107;86;21521;-75
2021/11/16 08:46:16;;;;;;;88.07;37.17;;;;;;;4.78;86.51;101216.56;2013560;86;21053;-76
2021/11/16 08:49:26;;;;;;;99.95;40.65;;;;;;;4.72;86.54;101223.08;2013678;86;21115;-74
2021/11/16 08:52:32;;;;;;;93.67;38.45;;;;;;;4.64;86.60;101214.85;2012764;86;21076;-75
2021/11/16 08:55:37;;;;;;;80.12;35.35;;;;;;;4.64;86.79;101212.23;2017457;86;20992;-75
2021/11/16 08:58:38;;;;;;;85.95;35.38;;;;;;;4.70;86.89;101216.63;2019177;86;21857;-75
2021/11/16 09:01:42;;;;;;;86.67;38.40;;;;;;;4.72;86.87;101208.14;2018321;86;21056;-76
2021/11/16 09:04:44;;;;;;;87.45;38.23;;;;;;;4.75;86.84;101213.67;2014632;86;21062;-75
2021/11/16 09:07:54;;;;;;;86.72;37.40;;;;;;;4.77;87.01;101213.58;2015797;86;21034;-76
2021/11/16 09:11:13;;;;;;;68.07;29.63;;;;;;;4.80;86.94;101222.09;2012444;86;20979;-76
2021/11/16 09:14:15;;;;;;;78.95;36.17;;;;;;;4.83;86.90;101203.48;2014454;86;21033;-75
2021/11/16 09:17:17;;;;;;;84.67;36.42;;;;;;;4.85;86.84;101212.13;2012862;86;21011;-75
2021/11/16 09:20:26;;;;;;;82.17;36.28;;;;;;;4.87;86.68;101207.61;2019457;86;21154;-74
2021/11/16 09:23:43;;;;;;;83.87;34.83;;;;;;;4.87;86.61;101207.61;2019384;86;21045;-75
2021/11/16 09:27:12;;;;;;;72.27;33.48;;;;;;;4.93;86.63;101204.56;2020934;87;21036;-76
2021/11/16 09:30:02;;;;;;;84.47;35.95;;;;;;;4.97;86.50;101206.98;2014443;87;21327;-76
2021/11/16 09:33:12;;;;;;;76.15;35.38;;;;;;;4.95;86.41;101213.64;2016335;87;21031;-76
2021/11/16 09:36:26;;;;;;;79.05;33.67;;;;;;;4.97;86.63;101209.13;2017691;87;21046;-75
2021/11/16 09:39:42;;;;;;;63.95;29.77;;;;;;;4.98;86.45;101203.39;2020362;87;21487;-75
2021/11/16 09:42:46;;;;;;;79.17;34.33;;;;;;;4.97;86.35;101197.77;2019287;87;21007;-74
2021/11/16 09:45:48;;;;;;;73.57;33.58;;;;;;;5.03;86.52;101194.72;2013545;87;21572;-75
2021/11/16 09:49:00;;;;;;;73.12;33.18;;;;;;;5.10;86.43;101184.16;2016339;87;21067;-76
2021/11/16 09:52:13;;;;;;;72.20;31.50;;;;;;;5.13;86.29;101176.88;2017944;87;20991;-75
2021/11/16 09:55:23;;;;;;;71.85;34.25;;;;;;;5.17;86.13;101176.19;2021576;87;21003;-74
2021/11/16 09:58:26;;;;;;;88.85;36.83;;;;;;;5.18;86.20;101176.58;2023419;87;21509;-75
2021/11/16 10:01:36;;;;;;;77.87;34.15;;;;;;;5.24;86.12;101170.89;2016804;87;21093;-75
2021/11/16 10:04:46;;;;;;;74.50;35.15;;;;;;;5.23;86.18;101170.50;2016804;87;22567;-75
2021/11/16 10:07:41;;;;;;;76.05;34.83;;;;;;;5.36;86.36;101175.28;2018085;87;21030;-75
2021/11/16 10:10:48;;;;;;;69.85;33.40;;;;;;;5.37;85.96;101163.80;2018984;87;20951;-76
2021/11/16 10:13:49;;;;;;;67.72;31.90;;;;;;;5.39;85.89;101157.95;2016832;87;21081;-76
2021/11/16 10:16:52;;;;;;;76.60;36.15;;;;;;;5.54;86.02;101153.88;2020360;87;21549;-76
2021/11/16 10:19:53;;;;;;;76.25;37.10;;;;;;;5.62;85.81;101152.85;1959950;89;21061;-76
2021/11/16 10:22:59;;;;;;;76.53;34.88;;;;;;;5.61;85.54;101148.07;2008615;87;21104;-76
2021/11/16 10:26:02;;;;;;;80.90;36.20;;;;;;;5.56;85.48;101153.30;1980117;89;20994;-75
2021/11/16 10:29:09;;;;;;;67.27;30.68;;;;;;;5.52;85.37;101146.55;2010638;87;20959;-76
2021/11/16 10:32:21;;;;;;;70.47;33.30;;;;;;;5.46;85.37;101143.04;2013618;87;21026;-76
2021/11/16 10:35:23;;;;;;;72.20;34.95;;;;;;;5.36;85.22;101146.33;2015666;87;21149;-75
2021/11/16 10:38:38;;;;;;;77.95;36.28;;;;;;;5.31;85.44;101135.77;2013636;87;21042;-76
2021/11/16 10:41:41;;;;;;;73.20;35.92;;;;;;;5.35;85.76;101125.37;2012711;87;21078;-75
2021/11/16 10:44:58;;;;;;;75.95;37.55;;;;;;;5.42;85.85;101127.11;2013170;87;21160;-76
2021/11/16 10:48:09;;;;;;;81.37;37.23;;;;;;;5.44;85.74;101130.48;2012288;87;20983;-76
2021/11/16 10:51:13;;;;;;;81.02;37.48;;;;;;;5.48;85.72;101120.92;2013277;87;21455;-75
2021/11/16 10:54:15;;;;;;;85.35;41.37;;;;;;;5.52;85.73;101117.59;2009723;87;21041;-77
2021/11/16 10:57:20;;;;;;;79.95;37.20;;;;;;;5.54;85.73;101124.43;2015420;86;21030;-76
2021/11/16 11:00:38;;;;;;;83.70;37.83;;;;;;;5.56;85.62;101119.07;2012012;87;21073;-77
2021/11/16 11:03:43;;;;;;;81.28;39.65;;;;;;;5.52;85.55;101105.75;2011878;87;21014;-75
2021/11/16 11:06:46;;;;;;;85.75;39.55;;;;;;;5.52;85.68;101106.61;2009800;87;21057;-76
2021/11/16 11:09:57;;;;;;;82.05;38.40;;;;;;;5.61;85.87;101098.52;2011993;87;21083;-75
2021/11/16 11:13:23;;;;;;;90.25;40.75;;;;;;;5.67;85.72;101095.44;2014585;87;21091;-74
2021/11/16 11:16:25;;;;;;;78.97;40.03;;;;;;;5.76;85.73;101098.72;2015535;87;21024;-76
2021/11/16 11:19:35;;;;;;;80.42;38.55;;;;;;;5.84;85.73;101083.20;2017186;86;21516;-76
2021/11/16 11:22:41;;;;;;;77.80;39.03;;;;;;;5.85;85.35;101092.77;2019533;86;21525;-75
2021/11/16 11:25:48;;;;;;;79.90;39.73;;;;;;;5.83;85.22;101082.84;2017242;86;21066;-75
2021/11/16 11:28:53;;;;;;;90.85;40.40;;;;;;;5.88;85.36;101077.22;2020212;86;21070;-75
2021/11/16 11:31:52;;;;;;;75.45;34.43;;;;;;;6.01;85.47;101077.20;2022134;86;21512;-75
2021/11/16 11:34:59;;;;;;;79.33;38.77;;;;;;;6.16;85.50;101070.77;2028655;86;21632;-75
2021/11/16 11:38:13;;;;;;;74.62;34.98;;;;;;;6.31;85.35;101070.57;2026093;86;21051;-76
2021/11/16 11:41:15;;;;;;;83.03;40.45;;;;;;;6.48;85.13;101067.03;2024165;86;21059;-74
2021/11/16 11:44:19;;;;;;;77.17;39.25;;;;;;;6.69;85.10;101053.98;2024858;86;21031;-74
2021/11/16 11:47:30;;;;;;;76.10;39.63;;;;;;;6.88;84.57;101051.24;2019951;86;21094;-75
2021/11/16 11:50:58;;;;;;;76.10;38.30;;;;;;;7.03;84.27;101044.75;2025591;86;21555;-75
2021/11/16 11:53:59;;;;;;;79.70;41.08;;;;;;;7.17;83.83;101039.21;2027529;86;20981;-76
2021/11/16 11:57:01;;;;;;;71.77;37.33;;;;;;;7.35;83.65;101032.96;2026007;86;20978;-75
2021/11/16 12:00:05;;;;;;;73.55;39.50;;;;;;;7.47;83.04;101034.25;2024655;86;22485;-75
2021/11/16 12:03:10;;;;;;;72.35;36.30;;;;;;;7.50;82.23;101034.00;2026663;86;21010;-75
2021/11/16 12:06:12;;;;;;;62.25;31.68;;;;;;;7.58;82.90;101027.13;2023070;86;21026;-76
2021/11/16 12:09:15;;;;;;;65.78;36.33;;;;;;;7.63;82.28;101018.34;2024481;86;21122;-77
2021/11/16 12:12:19;;;;;;;67.47;36.68;;;;;;;7.64;82.50;101014.73;2026791;86;21078;-76
2021/11/16 12:15:29;;;;;;;66.42;36.38;;;;;;;7.71;82.42;101011.58;2026975;86;21009;-83
2021/11/16 12:18:46;;;;;;;71.20;38.25;;;;;;;7.81;82.69;101000.13;2033604;86;21016;-73
2021/11/16 12:21:49;;;;;;;70.12;37.23;;;;;;;7.88;82.11;100999.62;2048217;86;21010;-75
2021/11/16 12:24:55;;;;;;;78.95;39.85;;;;;;;7.85;81.69;100991.45;2046237;86;20986;-74
2021/11/16 12:27:58;;;;;;;69.58;37.75;;;;;;;7.83;81.82;100986.32;2048616;85;21001;-73
2021/11/16 12:31:03;;;;;;;80.22;37.95;;;;;;;7.89;81.65;100981.50;2047221;86;21046;-73
2021/11/16 12:34:04;;;;;;;72.03;37.28;;;;;;;7.95;81.54;100982.30;2047669;86;21025;-74
2021/11/16 12:37:09;;;;;;;68.02;37.33;;;;;;;8.01;81.47;100983.94;2045373;86;21528;-76
2021/11/16 12:40:35;;;;;;;65.85;35.30;;;;;;;8.04;81.23;100975.73;2049103;86;21003;-74
2021/11/16 12:43:48;;;;;;;69.70;37.98;;;;;;;8.08;80.88;100967.92;2049427;86;21035;-74
2021/11/16 12:47:01;;;;;;;71.28;38.45;;;;;;;8.07;80.45;100970.19;2045470;86;20978;-74
2021/11/16 12:50:17;;;;;;;67.15;38.02;;;;;;;8.03;80.63;100972.75;2047578;86;21623;-73
2021/11/16 12:53:24;;;;;;;73.70;39.23;;;;;;;8.00;80.54;100966.90;2044457;86;21034;-74
2021/11/16 12:56:46;;;;;;;68.00;37.67;;;;;;;7.95;80.43;100958.03;2043540;86;21576;-75
2021/11/16 12:59:52;;;;;;;69.75;37.15;;;;;;;7.92;80.44;100958.28;2049139;86;21081;-73
2021/11/16 13:02:54;;;;;;;71.75;36.45;;;;;;;7.91;80.46;100959.72;2048069;86;21078;-75
2021/11/16 13:06:01;;;;;;;56.37;32.78;;;;;;;7.90;80.28;100944.36;2046328;86;21029;-75
2021/11/16 13:09:07;;;;;;;67.15;36.23;;;;;;;7.86;80.02;100945.11;2043329;86;21081;-74
2021/11/16 13:12:09;;;;;;;71.30;39.92;;;;;;;7.79;80.04;100942.61;2047113;85;21096;-73
2021/11/16 13:15:28;;;;;;;63.42;37.88;;;;;;;7.73;79.92;100938.33;2044975;86;20988;-74
2021/11/16 13:18:39;;;;;;;70.75;39.10;;;;;;;7.64;79.82;100938.63;2045184;86;21497;-74
2021/11/16 13:21:41;;;;;;;71.77;40.15;;;;;;;7.55;80.08;100940.23;2014412;86;21000;-74
2021/11/16 13:24:43;;;;;;;75.10;38.98;;;;;;;7.53;80.04;100933.39;2010004;86;22324;-75
2021/11/16 13:27:53;;;;;;;74.25;38.38;;;;;;;7.47;79.89;100940.02;2010541;86;21008;-74
2021/11/16 13:31:05;;;;;;;74.67;36.15;;;;;;;7.48;80.15;100941.69;2013689;86;21494;-77
2021/11/16 13:34:14;;;;;;;73.90;38.50;;;;;;;7.47;80.08;100938.70;2009527;86;21039;-76
2021/11/16 13:37:21;;;;;;;68.70;36.80;;;;;;;7.45;80.13;100940.62;2014883;86;21046;-75
2021/11/16 13:40:24;;;;;;;68.50;37.10;;;;;;;7.48;80.21;100932.44;2017536;86;21047;-76
2021/11/16 13:43:26;;;;;;;75.10;39.40;;;;;;;7.48;80.12;100931.12;2014029;86;20955;-76
2021/11/16 13:46:27;;;;;;;72.50;39.85;;;;;;;7.47;80.03;100924.17;2016123;86;21010;-77
2021/11/16 13:49:46;;;;;;;73.00;38.40;;;;;;;7.41;79.95;100925.52;2019882;86;21098;-75
2021/11/16 13:52:55;;;;;;;72.65;39.13;;;;;;;7.37;79.97;100920.61;2001990;86;21045;-77
2021/11/16 13:55:55;;;;;;;67.03;37.63;;;;;;;7.32;79.98;100917.50;2010588;86;21043;-75
2021/11/16 13:58:56;;;;;;;74.03;38.73;;;;;;;7.28;80.09;100905.53;2011694;86;21010;-75
2021/11/16 14:02:02;;;;;;;69.25;38.20;;;;;;;7.27;80.04;100903.38;2020087;86;21487;-76
2021/11/16 14:05:07;;;;;;;70.20;38.50;;;;;;;7.26;80.12;100900.36;2012675;86;21048;-76
2021/11/16 14:08:12;;;;;;;71.80;40.03;;;;;;;7.30;80.13;100906.25;2020086;86;21039;-76
2021/11/16 14:11:17;;;;;;;72.87;41.10;;;;;;;7.30;80.11;100904.93;2019137;86;21022;-77
2021/11/16 14:14:21;;;;;;;64.47;38.63;;;;;;;7.30;80.09;100903.61;2016312;86;21108;-77
2021/11/16 14:17:23;;;;;;;73.50;40.60;;;;;;;7.29;80.06;100889.58;2015724;86;20972;-75